Time;durP1;ratioP1;P1;durP2;ratioP2;P2;SDS_P1;SDS_P2;PMS_P1;PMS_P2;Temp;Humidity;BMP_temperature;BMP_pressure;BME280_temperature;BME280_humidity;BME280_pressure;Samples;Min_cycle;Max_cycle;Signal;HPM_P1;HPM_P2
2022/07/06 00:00:43;;;;;;;4.88;1.35;;;18.80;99.90;;;-141.84;47.61;20476.44;5070527;28;20661;-60
2022/07/06 00:03:11;;;;;;;1.77;1.40;;;18.70;99.90;;;-141.84;47.22;20433.75;5070162;28;20260;-59
2022/07/06 00:05:39;;;;;;;2.55;1.33;;;18.80;99.90;;;-141.84;48.13;20435.78;5070548;28;20285;-60
2022/07/06 00:08:09;;;;;;;3.30;1.50;;;18.80;99.90;;;-141.84;47.20;20464.25;5071020;28;20255;-59
2022/07/06 00:10:37;;;;;;;3.15;1.40;;;18.90;99.90;;;-141.84;47.48;20447.97;5069926;28;20336;-59
2022/07/06 00:13:05;;;;;;;2.63;1.30;;;18.80;99.90;;;-141.84;46.56;20472.38;5070056;28;20777;-59
2022/07/06 00:15:33;;;;;;;2.03;1.23;;;18.80;99.90;;;-141.84;47.14;20476.44;5070119;28;20315;-60
2022/07/06 00:18:01;;;;;;;1.55;1.20;;;18.80;99.90;;;-141.84;47.36;20423.59;5070224;28;20228;-60
2022/07/06 00:20:30;;;;;;;2.90;1.20;;;18.80;99.90;;;-141.84;45.39;20484.56;5070050;28;20258;-59
2022/07/06 00:22:58;;;;;;;1.60;1.15;;;18.80;99.90;;;-141.84;45.82;20441.88;5070709;28;20327;-58
2022/07/06 00:25:27;;;;;;;1.10;1.05;;;18.80;99.90;;;-141.84;46.34;20472.38;5069750;28;20231;-60
2022/07/06 00:27:55;;;;;;;2.50;1.40;;;18.80;99.90;;;-141.84;45.98;20470.34;5069788;28;20311;-59
2022/07/06 00:30:23;;;;;;;1.48;1.00;;;18.80;99.90;;;-141.84;46.48;20433.75;5069839;28;20230;-59
2022/07/06 00:32:52;;;;;;;1.92;1.30;;;18.80;99.90;;;-141.84;46.73;20435.78;5070021;28;20227;-59
2022/07/06 00:35:20;;;;;;;1.30;1.20;;;18.70;99.90;;;-141.84;45.76;20484.56;5070001;28;20287;-60
2022/07/06 00:37:50;;;;;;;2.60;1.13;;;18.70;99.90;;;-141.84;44.84;20488.63;5070408;28;20185;-60
2022/07/06 00:40:19;;;;;;;1.30;1.13;;;18.80;99.90;;;-141.84;44.29;20517.09;5069502;28;20311;-61
2022/07/06 00:42:49;;;;;;;3.83;1.10;;;18.80;99.90;;;-141.84;44.23;20498.81;5069770;28;20224;-59
2022/07/06 00:45:19;;;;;;;1.83;1.25;;;18.80;99.90;;;-141.84;43.96;20500.84;5070149;28;20601;-57
2022/07/06 00:47:48;;;;;;;3.30;1.40;;;18.80;99.90;;;-141.84;44.21;20513.03;5069718;28;20307;-60
2022/07/06 00:50:20;;;;;;;1.65;1.23;;;18.80;99.90;;;-141.84;43.99;20482.53;5069972;28;20209;-59
2022/07/06 00:52:51;;;;;;;3.35;1.00;;;18.80;99.90;;;-141.84;43.68;20521.16;5069680;28;20232;-59
2022/07/06 00:55:23;;;;;;;3.65;1.40;;;18.80;99.90;;;-141.84;43.98;20472.38;5069244;28;20248;-59
2022/07/06 00:57:53;;;;;;;2.88;1.10;;;18.70;99.90;;;-141.84;44.95;20472.38;5069562;28;20233;-60
2022/07/06 01:00:26;;;;;;;4.28;1.40;;;18.60;99.90;;;-141.84;45.00;20488.63;5069444;28;20226;-60
2022/07/06 01:02:55;;;;;;;3.40;1.30;;;18.60;99.90;;;-141.84;44.80;20452.06;5069565;28;20227;-59
2022/07/06 01:05:24;;;;;;;1.60;1.25;;;18.50;99.90;;;-141.84;45.00;20445.94;5069580;28;20550;-59
2022/07/06 01:07:54;;;;;;;2.67;1.50;;;18.50;99.90;;;-141.84;44.90;20466.28;5070292;28;20196;-59
2022/07/06 01:10:23;;;;;;;2.72;1.67;;;18.50;99.90;;;-141.84;45.45;20427.66;5069145;28;20242;-59
2022/07/06 01:12:53;;;;;;;4.00;1.60;;;18.50;99.90;;;-141.84;45.83;20423.59;5069057;28;20224;-61
2022/07/06 01:15:25;;;;;;;2.42;1.60;;;18.40;99.90;;;-141.84;46.00;20419.53;5069236;28;20221;-60
2022/07/06 01:17:53;;;;;;;3.28;1.50;;;18.30;99.90;;;-141.84;46.84;20350.41;5069570;28;20228;-59
2022/07/06 01:20:26;;;;;;;3.95;1.38;;;18.20;99.90;;;-141.84;46.93;20382.94;5069229;28;20212;-58
2022/07/06 01:22:56;;;;;;;1.50;1.40;;;18.10;99.90;;;-141.84;46.76;20405.31;5069795;28;20307;-60
2022/07/06 01:25:24;;;;;;;1.83;1.70;;;18.10;99.90;;;-141.84;46.89;20393.09;5068905;28;20626;-59
2022/07/06 01:27:53;;;;;;;2.10;1.70;;;18.00;99.90;;;-141.84;47.15;20393.09;5069360;28;20248;-60
2022/07/06 01:30:21;;;;;;;1.70;1.60;;;18.00;99.90;;;-141.84;48.13;20303.66;5069120;28;20308;-60
2022/07/06 01:32:51;;;;;;;3.10;1.65;;;17.80;99.90;;;-141.84;48.40;20291.47;5069066;28;20227;-59
2022/07/06 01:35:20;;;;;;;2.75;1.90;;;17.70;99.90;;;-141.84;48.60;20301.63;5069339;28;20197;-59
2022/07/06 01:37:50;;;;;;;3.60;1.70;;;17.70;99.90;;;-141.84;48.70;20311.78;5069820;28;20211;-60
2022/07/06 01:40:19;;;;;;;2.10;1.90;;;17.60;99.90;;;-141.84;48.58;20313.84;5068870;28;20256;-59
2022/07/06 01:42:47;;;;;;;4.30;2.13;;;17.60;99.90;;;-141.84;49.56;20252.84;5069220;28;20236;-59
2022/07/06 01:45:15;;;;;;;2.50;1.75;;;17.50;99.90;;;-141.84;49.88;20260.97;5069005;28;20692;-58
2022/07/06 01:47:43;;;;;;;2.92;1.95;;;17.30;99.90;;;-141.84;49.52;20246.75;5068958;28;20304;-59
2022/07/06 01:50:11;;;;;;;2.97;1.90;;;17.40;99.90;;;-141.84;50.25;20250.81;5069222;28;20215;-60
2022/07/06 01:52:39;;;;;;;2.88;1.70;;;17.30;99.90;;;-141.84;50.47;20224.41;5069029;28;20225;-58
2022/07/06 01:55:10;;;;;;;2.80;1.50;;;17.20;99.90;;;-141.84;50.43;20246.75;5068801;28;20236;-59
2022/07/06 01:57:38;;;;;;;2.55;1.70;;;17.20;99.90;;;-141.84;50.52;20220.34;5072962;28;20256;-58
2022/07/06 02:00:09;;;;;;;3.50;2.13;;;17.20;99.90;;;-141.84;50.81;20228.47;5072838;28;20228;-60
2022/07/06 02:02:37;;;;;;;2.83;2.00;;;17.10;99.90;;;-141.84;51.20;20197.97;5072432;28;20628;-59
2022/07/06 02:05:05;;;;;;;3.78;1.90;;;17.30;99.90;;;-141.84;51.52;20191.88;5073204;28;20200;-59
2022/07/06 02:07:33;;;;;;;2.40;2.00;;;17.00;99.90;;;-141.84;52.11;20171.56;5072549;28;20232;-60
2022/07/06 02:10:02;;;;;;;2.67;1.88;;;16.80;99.90;;;-141.84;52.41;20165.44;5072379;28;20308;-59
2022/07/06 02:12:31;;;;;;;1.98;1.80;;;16.90;99.90;;;-141.84;52.66;20147.16;5072196;28;20312;-59
2022/07/06 02:14:59;;;;;;;4.15;1.80;;;16.80;99.90;;;-141.84;52.99;20130.91;5072699;28;20307;-59
2022/07/06 02:17:27;;;;;;;4.03;1.88;;;16.80;99.90;;;-141.84;53.18;20139.03;5072366;28;20304;-59
2022/07/06 02:19:55;;;;;;;3.28;1.77;;;16.80;99.90;;;-141.84;53.08;20169.53;5072343;28;20614;-59
2022/07/06 02:22:23;;;;;;;2.83;2.33;;;16.80;99.90;;;-141.84;53.01;20147.16;5071882;28;20228;-60
2022/07/06 02:24:52;;;;;;;3.75;2.15;;;16.80;99.90;;;-141.84;52.89;20161.38;5071989;28;20239;-59
2022/07/06 02:27:20;;;;;;;3.00;2.25;;;16.80;99.90;;;-141.84;53.27;20141.06;5072018;28;20228;-58
2022/07/06 02:29:49;;;;;;;2.50;1.90;;;16.80;99.90;;;-141.84;53.62;20143.09;5072227;28;20231;-60
2022/07/06 02:32:18;;;;;;;4.43;1.90;;;16.80;99.90;;;-141.84;53.79;20147.16;5071982;28;20291;-58
2022/07/06 02:34:46;;;;;;;2.17;1.98;;;16.80;99.90;;;-141.84;54.68;20100.41;5072385;28;20494;-59
2022/07/06 02:37:14;;;;;;;4.30;2.10;;;16.70;99.90;;;-141.84;54.46;20130.91;5071934;28;20735;-59
2022/07/06 02:39:42;;;;;;;2.45;1.77;;;16.70;99.90;;;-141.84;55.24;20080.09;5071597;28;20740;-60
2022/07/06 02:42:11;;;;;;;2.78;2.10;;;16.60;99.90;;;-141.84;54.98;20122.78;5071576;28;20304;-59
2022/07/06 02:44:39;;;;;;;2.17;1.90;;;16.60;99.90;;;-141.84;55.45;20098.38;5071772;28;20228;-60
2022/07/06 02:47:08;;;;;;;2.70;1.83;;;16.60;99.90;;;-141.84;56.06;20110.56;5072067;28;20251;-60
2022/07/06 02:49:36;;;;;;;2.53;1.70;;;16.60;99.90;;;-141.84;56.46;20049.59;5071554;28;20228;-59
2022/07/06 02:52:05;;;;;;;3.53;2.20;;;16.50;99.90;;;-141.84;56.85;20031.31;5071665;28;20239;-60
2022/07/06 02:54:33;;;;;;;2.13;1.80;;;16.50;99.90;;;-141.84;57.57;20045.53;5071822;28;20308;-60
2022/07/06 02:57:01;;;;;;;2.47;1.90;;;16.30;99.90;;;-141.84;57.63;20067.88;5071525;28;20227;-57
2022/07/06 02:59:29;;;;;;;3.38;2.08;;;16.30;99.90;;;-141.84;57.67;20002.84;5071616;28;20197;-59
2022/07/06 03:01:57;;;;;;;2.00;1.90;;;16.40;99.90;;;-141.84;57.68;20031.31;5071446;28;20212;-59
2022/07/06 03:04:27;;;;;;;4.53;1.90;;;16.30;99.90;;;-141.84;58.20;20002.84;5071161;28;20248;-59
2022/07/06 03:06:55;;;;;;;4.38;1.90;;;16.20;99.90;;;-141.84;58.49;20015.03;5070687;28;20366;-59
2022/07/06 03:09:23;;;;;;;3.58;2.00;;;16.20;99.90;;;-141.84;58.04;20025.22;5071285;28;20307;-60
2022/07/06 03:11:51;;;;;;;3.15;2.17;;;16.30;99.90;;;-141.84;58.77;19990.66;5070812;28;20285;-58
2022/07/06 03:14:20;;;;;;;3.13;2.10;;;16.20;99.90;;;-141.84;58.51;20049.59;5071343;28;20264;-60
2022/07/06 03:16:48;;;;;;;2.97;2.00;;;16.20;99.90;;;-141.84;59.08;19966.28;5071521;28;20551;-59
2022/07/06 03:19:18;;;;;;;2.30;1.90;;;16.10;99.90;;;-141.84;59.06;20029.28;5071109;28;20360;-60
2022/07/06 03:21:48;;;;;;;2.30;2.00;;;16.10;99.90;;;-141.84;59.04;20019.13;5071191;28;20311;-60
2022/07/06 03:24:16;;;;;;;3.50;1.80;;;16.20;99.90;;;-141.84;58.56;20047.56;5071037;28;20711;-60
2022/07/06 03:26:44;;;;;;;3.28;2.22;;;16.20;99.90;;;-141.84;58.51;20043.50;5071023;28;20662;-59
2022/07/06 03:29:12;;;;;;;5.65;2.17;;;16.30;99.90;;;-141.84;58.86;20029.28;5071835;28;20207;-59
2022/07/06 03:31:41;;;;;;;2.85;2.03;;;16.30;99.90;;;-141.84;59.38;20008.94;5070874;28;20239;-60
2022/07/06 03:34:09;;;;;;;3.03;2.05;;;16.30;99.90;;;-141.84;59.95;19980.50;5071007;28;20243;-59
2022/07/06 03:36:38;;;;;;;2.93;1.90;;;16.20;99.90;;;-141.84;60.23;19970.34;5070789;28;20345;-60
2022/07/06 03:39:08;;;;;;;3.22;1.83;;;16.10;99.90;;;-141.84;61.31;19954.06;5070660;28;20785;-60
2022/07/06 03:41:36;;;;;;;2.20;1.77;;;16.00;99.90;;;-141.84;61.53;19931.72;5070571;28;20215;-59
2022/07/06 03:44:05;;;;;;;3.47;2.05;;;16.00;99.90;;;-141.84;60.78;19950.00;5071545;28;20244;-58
2022/07/06 03:46:33;;;;;;;3.55;2.22;;;16.10;99.90;;;-141.84;60.41;20008.94;5070829;28;20730;-60
2022/07/06 03:49:01;;;;;;;4.35;2.22;;;16.10;99.90;;;-141.84;60.68;19988.63;5070952;28;20237;-59
2022/07/06 03:51:29;;;;;;;2.60;2.03;;;16.20;99.90;;;-141.84;60.57;20037.41;5070542;28;20220;-59
2022/07/06 03:53:57;;;;;;;6.13;2.00;;;16.20;99.90;;;-141.84;60.23;19996.75;5070635;28;20250;-59
2022/07/06 03:56:31;;;;;;;1.98;1.77;;;16.30;99.90;;;-141.84;60.36;19996.75;5070531;28;20292;-59
2022/07/06 03:59:02;;;;;;;3.00;1.88;;;16.30;99.90;;;-141.84;60.24;20008.94;5071089;28;20239;-58
2022/07/06 04:01:31;;;;;;;2.47;1.50;;;16.50;99.90;;;-141.84;59.71;19976.44;5070123;28;20234;-59
2022/07/06 04:03:59;;;;;;;3.83;1.80;;;16.50;99.90;;;-141.84;60.16;19976.44;5070118;28;20311;-59
2022/07/06 04:06:27;;;;;;;3.45;1.92;;;16.60;99.90;;;-141.84;59.37;20043.50;5070301;28;20255;-59
2022/07/06 04:08:55;;;;;;;3.80;2.05;;;16.60;99.90;;;-141.84;59.57;20039.44;5070111;28;20723;-60
2022/07/06 04:11:24;;;;;;;2.60;1.92;;;16.60;99.90;;;-141.84;59.06;20041.47;5069619;28;20710;-59
2022/07/06 04:13:54;;;;;;;3.45;1.70;;;16.70;99.90;;;-141.84;58.73;20063.81;5070345;28;20291;-59
2022/07/06 04:16:22;;;;;;;3.90;1.85;;;16.70;99.90;;;-141.84;58.89;20041.47;5070059;28;20221;-59
2022/07/06 04:18:50;;;;;;;2.97;1.70;;;16.70;99.90;;;-141.84;58.80;20071.97;5069981;28;20224;-59
2022/07/06 04:21:18;;;;;;;1.80;1.70;;;16.70;99.90;;;-141.84;58.64;20069.94;5070272;28;20232;-59
2022/07/06 04:23:47;;;;;;;2.85;1.65;;;16.80;99.90;;;-141.84;58.99;20045.53;5070124;28;20231;-59
2022/07/06 04:26:15;;;;;;;2.25;1.90;;;16.90;99.90;;;-141.84;57.98;20092.28;5070292;28;20197;-58
2022/07/06 04:28:43;;;;;;;3.78;1.70;;;16.90;99.90;;;-141.84;58.68;20037.41;5069850;28;20216;-59
2022/07/06 04:31:15;;;;;;;4.05;1.95;;;16.90;99.90;;;-141.84;59.35;20037.41;5069967;28;20248;-59
2022/07/06 04:33:43;;;;;;;3.25;1.92;;;16.80;99.90;;;-141.84;59.09;20053.66;5069758;28;20220;-59
2022/07/06 04:36:12;;;;;;;5.20;1.75;;;16.80;99.90;;;-141.84;58.84;20049.59;5069735;28;20772;-59
2022/07/06 04:38:40;;;;;;;2.20;2.00;;;16.80;99.90;;;-141.84;58.82;20047.56;5069610;28;20328;-58
2022/07/06 04:41:08;;;;;;;4.40;1.85;;;16.70;99.90;;;-141.84;58.39;20088.22;5070122;28;20205;-59
2022/07/06 04:43:36;;;;;;;2.25;1.83;;;16.80;99.90;;;-141.84;56.74;20167.47;5069354;28;20235;-59
2022/07/06 04:46:05;;;;;;;3.05;1.70;;;17.00;99.90;;;-141.84;55.72;20204.06;5069579;28;20304;-59
2022/07/06 04:48:38;;;;;;;3.63;1.70;;;17.30;99.90;;;-141.84;54.10;20277.25;5069339;28;20248;-58
2022/07/06 04:51:07;;;;;;;3.03;1.92;;;17.60;99.90;;;-141.84;52.99;20287.41;5069220;28;20385;-59
2022/07/06 04:53:36;;;;;;;2.42;2.08;;;17.80;99.90;;;-141.84;52.96;20305.69;5069378;28;20645;-60
2022/07/06 04:56:05;;;;;;;2.33;1.92;;;17.90;99.90;;;-141.84;53.87;20236.59;5069637;28;20201;-59
2022/07/06 04:58:33;;;;;;;2.13;1.60;;;17.80;99.90;;;-141.84;54.24;20224.41;5069006;28;20311;-59
2022/07/06 05:01:01;;;;;;;3.47;1.95;;;17.70;99.90;;;-141.84;nan;20222.38;5069150;28;20224;-60
2022/07/06 05:03:30;;;;;;;4.10;1.80;;;17.70;99.90;;;-141.84;54.00;20220.34;5068868;28;20228;-59
2022/07/06 05:05:59;;;;;;;4.18;1.90;;;17.70;99.90;;;-141.84;54.53;20193.91;5069189;28;20258;-60
2022/07/06 05:08:27;;;;;;;4.47;1.92;;;17.50;99.90;;;-141.84;54.87;20183.75;5068837;28;20601;-58
2022/07/06 05:10:55;;;;;;;2.63;1.50;;;17.60;99.90;;;-141.84;54.51;20195.94;5066340;28;20300;-58
2022/07/06 05:13:23;;;;;;;4.15;1.60;;;17.50;99.90;;;-141.84;nan;20193.91;5049270;28;20240;-59
2022/07/06 05:15:52;;;;;;;2.38;1.60;;;17.60;99.90;;;-141.84;54.00;20228.47;5049205;28;20661;-59
2022/07/06 05:18:20;;;;;;;4.13;1.63;;;17.60;99.90;;;-141.84;53.28;20287.41;5048918;28;20228;-59
2022/07/06 05:20:48;;;;;;;2.33;1.60;;;17.70;99.90;;;-141.84;51.87;20344.31;5059169;28;20716;-59
2022/07/06 05:23:18;;;;;;;1.70;1.50;;;18.10;99.90;;;-141.84;48.65;20571.97;5069425;28;20583;-59
2022/07/06 05:25:46;;;;;;;2.45;1.60;;;18.90;99.90;;;-141.84;46.17;20677.69;5070090;28;20311;-58
2022/07/06 05:28:14;;;;;;;2.97;1.58;;;19.40;99.90;;;-141.84;46.62;20639.06;5069872;28;20224;-59
2022/07/06 05:30:42;;;;;;;2.22;1.40;;;19.50;99.90;;;-141.84;46.79;20604.50;5070665;28;20315;-58
2022/07/06 05:33:10;;;;;;;2.47;1.70;;;19.60;99.90;;;-141.84;47.57;20561.81;5074179;28;20216;-59
2022/07/06 05:35:39;;;;;;;2.45;1.50;;;19.30;99.90;;;-141.84;47.43;20602.47;5074163;28;20226;-59
2022/07/06 05:38:20;;;;;;;2.03;1.60;;;19.50;99.90;;;-141.84;46.83;20614.66;5074133;28;20250;-58
2022/07/06 05:40:49;;;;;;;1.92;1.50;;;19.50;99.90;;;-141.84;46.79;20610.59;5074390;28;20288;-58
2022/07/06 05:43:18;;;;;;;1.75;1.38;;;19.60;99.90;;;-141.84;47.39;20506.94;5074144;28;20230;-58
2022/07/06 05:45:46;;;;;;;1.80;1.63;;;19.40;99.90;;;-141.84;47.68;20466.28;5073445;28;20783;-58
2022/07/06 05:51:01;;;;;;;2.58;1.50;;;18.70;99.90;;;-141.84;49.24;20380.91;5073581;28;20323;-58
2022/07/06 05:53:30;;;;;;;2.05;1.48;;;18.40;99.90;;;-141.84;49.68;20362.63;5073688;28;20209;-58
2022/07/06 05:55:58;;;;;;;4.40;1.85;;;18.30;99.90;;;-141.84;49.13;20350.41;5073734;28;20687;-58
2022/07/06 05:58:26;;;;;;;3.83;1.42;;;18.10;99.90;;;-141.84;49.57;20374.81;5073573;28;20239;-59
2022/07/06 06:00:55;;;;;;;2.67;1.50;;;18.20;99.90;;;-141.84;50.05;20344.31;5073239;28;20278;-61
2022/07/06 06:03:23;;;;;;;3.15;1.58;;;18.20;99.90;;;-141.84;49.09;20437.81;5073262;28;20255;-59
2022/07/06 06:05:51;;;;;;;4.32;1.63;;;18.30;99.90;;;-141.84;48.05;20431.72;5073349;28;20286;-59
2022/07/06 06:08:20;;;;;;;2.15;1.65;;;18.40;99.90;;;-141.84;46.41;20504.91;5073327;28;20219;-58
2022/07/06 06:10:50;;;;;;;2.85;1.40;;;18.70;99.90;;;-141.84;44.71;20622.81;5070854;28;20742;-59
2022/07/06 06:13:18;;;;;;;3.20;1.35;;;19.20;99.90;;;-141.84;43.68;20649.22;5053344;28;20313;-58
2022/07/06 06:15:46;;;;;;;3.55;1.40;;;19.40;99.90;;;-141.84;42.99;20704.13;5053236;28;20253;-58
2022/07/06 06:18:17;;;;;;;4.05;1.52;;;19.70;99.90;;;-141.84;42.42;20718.34;5053347;28;20225;-59
2022/07/06 06:20:45;;;;;;;2.78;1.60;;;19.80;99.90;;;-141.84;43.10;20706.16;5062770;28;20229;-59
2022/07/06 06:23:14;;;;;;;2.08;1.30;;;19.80;99.90;;;-141.84;43.52;20683.78;5073813;28;20205;-58
2022/07/06 06:25:42;;;;;;;3.17;1.60;;;19.90;99.90;;;-141.84;43.40;20700.03;5072718;28;20307;-60
2022/07/06 06:28:12;;;;;;;1.67;1.20;;;19.80;99.90;;;-141.84;42.80;20720.38;5072932;28;20232;-59
2022/07/06 06:30:41;;;;;;;3.13;1.40;;;19.80;99.90;;;-141.84;42.49;20700.03;5072487;28;20307;-59
2022/07/06 06:33:11;;;;;;;2.88;1.30;;;19.80;99.90;;;-141.84;42.98;20683.78;5072788;28;20568;-59
2022/07/06 06:35:44;;;;;;;2.55;1.27;;;19.80;99.90;;;-141.84;42.37;20702.09;5072886;28;20333;-61
2022/07/06 06:38:12;;;;;;;2.53;1.27;;;19.80;99.90;;;-141.84;42.19;20695.97;5073304;28;20271;-60
2022/07/06 06:40:40;;;;;;;1.88;1.50;;;19.70;99.90;;;-141.84;42.05;20708.19;5072325;28;20786;-59
2022/07/06 06:43:09;;;;;;;3.72;1.42;;;19.70;99.90;;;-141.84;42.56;20720.38;5072700;28;20224;-60
2022/07/06 06:45:39;;;;;;;4.07;1.30;;;19.90;99.90;;;-141.84;42.23;20714.28;5072615;28;20437;-59
2022/07/06 06:48:07;;;;;;;3.88;1.27;;;19.80;99.90;;;-141.84;42.30;20700.03;5072553;28;20716;-59
2022/07/06 06:50:44;;;;;;;2.38;1.35;;;19.80;99.90;;;-141.84;41.32;20773.22;5072378;28;20238;-60
2022/07/06 06:53:12;;;;;;;3.13;1.30;;;19.90;99.90;;;-141.84;41.10;20807.78;5073157;28;20258;-58
2022/07/06 06:55:41;;;;;;;3.10;1.38;;;20.00;99.90;;;-141.84;40.61;20838.28;5072050;28;20224;-59
2022/07/06 06:58:09;;;;;;;2.88;1.30;;;20.20;99.90;;;-141.84;40.24;20813.88;5072080;28;20419;-60
2022/07/06 07:00:38;;;;;;;2.28;1.35;;;20.40;99.90;;;-141.84;40.99;20787.47;5071770;28;20336;-61
2022/07/06 07:03:06;;;;;;;2.03;1.30;;;20.20;99.90;;;-141.84;41.29;20765.09;5072667;28;20323;-58
2022/07/06 07:05:35;;;;;;;2.92;1.40;;;20.00;99.90;;;-141.84;40.57;20824.06;5072371;28;20220;-59
2022/07/06 07:08:03;;;;;;;3.35;1.60;;;20.30;99.90;;;-141.84;40.31;20862.69;5073006;28;20196;-58
2022/07/06 07:10:33;;;;;;;2.58;1.30;;;20.50;99.90;;;-141.84;40.18;20836.25;5071014;28;20224;-60
2022/07/06 07:13:01;;;;;;;2.05;1.50;;;20.50;99.90;;;-141.84;40.04;20919.59;5051892;28;20611;-62
2022/07/06 07:15:29;;;;;;;1.90;1.35;;;20.80;99.90;;;-141.84;39.69;20941.97;5051879;28;20228;-63
2022/07/06 07:17:59;;;;;;;3.80;1.70;;;21.00;99.90;;;-141.84;39.57;20966.34;5052472;28;20307;-59
2022/07/06 07:20:29;;;;;;;3.78;1.90;;;21.10;99.90;;;-141.84;40.04;20931.78;5059159;28;20262;-58
2022/07/06 07:22:57;;;;;;;2.88;1.30;;;21.00;99.90;;;-141.84;41.09;20868.78;5072689;28;20215;-63
2022/07/06 07:25:26;;;;;;;2.65;1.70;;;20.90;99.90;;;-141.84;42.03;20797.63;5071718;28;20320;-62
2022/07/06 07:27:54;;;;;;;2.97;1.70;;;20.60;99.90;;;-141.84;42.13;20769.16;5071920;28;20715;-58
2022/07/06 07:30:23;;;;;;;1.98;1.63;;;20.50;99.90;;;-141.84;42.23;20767.13;5071835;28;20648;-59
2022/07/06 07:32:51;;;;;;;2.53;1.77;;;20.50;99.90;;;-141.84;42.65;20769.16;5071669;28;20653;-62
2022/07/06 07:35:20;;;;;;;3.08;1.90;;;20.50;99.90;;;-141.84;41.72;20842.34;5071823;28;20250;-59
2022/07/06 07:37:48;;;;;;;3.08;1.65;;;20.60;99.90;;;-141.84;41.32;20799.66;5072121;28;20633;-59
2022/07/06 07:40:17;;;;;;;2.03;1.40;;;20.70;99.90;;;-141.84;41.27;20883.00;5071705;28;20220;-59
2022/07/06 07:42:45;;;;;;;3.00;2.00;;;20.90;99.90;;;-141.84;39.89;20974.50;5071752;28;20231;-59
2022/07/06 07:45:13;;;;;;;2.83;1.33;;;21.10;99.90;;;-141.84;39.55;21009.03;5071528;28;20224;-58
2022/07/06 07:47:41;;;;;;;5.50;1.58;;;21.30;99.90;;;-141.84;39.00;20937.91;5071230;28;20227;-59
2022/07/06 07:50:10;;;;;;;2.42;1.63;;;21.20;99.90;;;-141.84;39.58;20954.16;5072404;28;20208;-58
2022/07/06 07:52:40;;;;;;;4.18;1.40;;;21.10;99.90;;;-141.84;39.59;20970.41;5070982;28;20598;-59
2022/07/06 07:55:09;;;;;;;3.25;1.50;;;21.10;99.90;;;-141.84;38.57;21021.25;5071034;28;20235;-58
2022/07/06 07:57:57;;;;;;;2.55;1.30;;;21.30;99.90;;;-141.84;38.89;21004.97;5070824;28;20221;-59
2022/07/06 08:00:26;;;;;;;3.80;1.42;;;21.10;99.90;;;-141.84;38.75;20939.94;5071247;28;20235;-58
2022/07/06 08:02:55;;;;;;;1.85;1.40;;;21.10;99.90;;;-141.84;39.78;20822.03;5071105;28;20221;-58
2022/07/06 08:05:23;;;;;;;6.10;1.67;;;20.70;99.90;;;-141.84;40.04;20811.84;5071534;28;20200;-58
2022/07/06 08:07:53;;;;;;;3.65;1.70;;;20.60;99.90;;;-141.84;39.61;20874.88;5071588;28;20216;-58
2022/07/06 08:10:21;;;;;;;2.70;1.30;;;20.70;99.90;;;-141.84;38.51;20919.59;5070976;28;20229;-59
2022/07/06 08:12:50;;;;;;;2.75;1.30;;;20.70;99.90;;;-141.84;38.05;20941.97;5051528;28;20720;-59
2022/07/06 08:15:18;;;;;;;2.55;1.40;;;20.80;99.90;;;-141.84;37.49;20921.63;5051056;28;20743;-59
2022/07/06 08:17:46;;;;;;;1.40;0.98;;;20.80;99.90;;;-141.84;37.32;20996.84;5050904;28;20228;-59
2022/07/06 08:20:15;;;;;;;2.35;1.23;;;21.10;99.90;;;-141.84;36.58;21092.41;5056718;28;20613;-59
2022/07/06 08:22:43;;;;;;;2.10;1.40;;;21.50;99.90;;;-141.84;36.27;21141.19;5071021;28;20224;-59
2022/07/06 08:25:13;;;;;;;2.85;1.52;;;21.80;99.90;;;-141.84;36.32;21112.72;5070511;28;20776;-59
2022/07/06 08:27:41;;;;;;;2.20;1.38;;;21.70;99.90;;;-141.84;36.32;21151.34;5070501;28;20224;-58
2022/07/06 08:30:12;;;;;;;3.42;1.25;;;21.70;99.90;;;-141.84;36.04;21137.13;5070665;28;20567;-59
2022/07/06 08:32:41;;;;;;;2.65;1.05;;;21.50;99.90;;;-141.84;36.22;21084.28;5070470;28;20225;-59
2022/07/06 08:35:29;;;;;;;4.40;1.20;;;21.50;99.90;;;-141.84;36.49;21059.88;5056508;28;20704;-59
2022/07/06 08:37:58;;;;;;;2.22;1.40;;;21.60;99.90;;;-141.84;36.03;21088.34;5070405;28;20275;-58
2022/07/06 08:40:35;;;;;;;2.10;1.20;;;21.50;99.90;;;-141.84;36.54;21039.53;5070054;28;20221;-58
2022/07/06 08:43:04;;;;;;;2.85;1.20;;;21.40;99.90;;;-141.84;37.04;21013.13;5071754;28;20749;-58
2022/07/06 08:45:35;;;;;;;2.95;1.08;;;21.20;99.90;;;-141.84;37.51;21015.16;5069863;28;20732;-57
2022/07/06 08:48:07;;;;;;;1.85;1.25;;;21.10;99.90;;;-141.84;37.34;20982.63;5070078;28;20609;-58
2022/07/06 08:50:35;;;;;;;3.45;1.48;;;21.20;99.90;;;-141.84;37.00;21078.16;5070212;28;20200;-58
2022/07/06 08:53:04;;;;;;;2.65;1.30;;;21.40;99.90;;;-141.84;35.72;21108.66;5070408;28;20287;-57
2022/07/06 08:55:35;;;;;;;1.45;1.10;;;21.50;99.90;;;-141.84;35.33;21129.00;5069708;28;20358;-59
2022/07/06 08:58:06;;;;;;;1.60;1.08;;;21.80;99.90;;;-141.84;35.75;21124.94;5070041;28;20229;-58
2022/07/06 09:00:35;;;;;;;3.25;1.30;;;21.80;99.90;;;-141.84;35.69;21196.09;5069842;28;20270;-57
2022/07/06 09:03:05;;;;;;;2.50;1.20;;;22.00;99.90;;;-141.84;35.24;21263.19;5069489;28;20584;-58
2022/07/06 09:05:36;;;;;;;2.45;1.15;;;22.30;99.90;;;-141.84;35.24;21234.72;5068644;28;20239;-60
2022/07/06 09:08:05;;;;;;;1.77;1.35;;;22.30;99.90;;;-141.84;35.39;21218.44;5070161;28;20221;-59
2022/07/06 09:10:34;;;;;;;4.03;1.30;;;22.00;99.90;;;-141.84;35.12;21181.84;5069304;28;20236;-59
2022/07/06 09:13:05;;;;;;;2.53;1.08;;;21.80;99.90;;;-141.84;35.12;21224.56;5049485;28;20237;-63
2022/07/06 09:15:34;;;;;;;2.47;1.17;;;21.80;99.90;;;-141.84;35.26;21198.13;5049379;28;20627;-59
2022/07/06 09:18:04;;;;;;;3.83;1.33;;;21.80;99.90;;;-141.84;36.03;21159.50;5049728;28;20401;-59
2022/07/06 09:20:33;;;;;;;2.53;1.10;;;21.80;99.90;;;-141.84;35.43;21165.59;5057530;28;20201;-58
2022/07/06 09:23:05;;;;;;;1.70;1.10;;;21.80;99.90;;;-141.84;35.52;21151.34;5070191;28;20228;-57
2022/07/06 09:25:36;;;;;;;1.98;1.20;;;21.80;99.90;;;-141.84;34.85;21110.69;5068382;28;20220;-55
2022/07/06 09:28:06;;;;;;;1.35;1.15;;;21.70;99.90;;;-141.84;35.45;21084.28;5069433;28;20236;-59
2022/07/06 09:30:39;;;;;;;2.10;1.33;;;21.60;99.90;;;-141.84;35.51;21065.97;5069493;28;20308;-59
2022/07/06 09:33:09;;;;;;;2.03;1.15;;;21.50;99.90;;;-141.84;34.58;21126.97;5069778;28;20224;-60
2022/07/06 09:35:39;;;;;;;1.85;1.10;;;21.50;99.90;;;-141.84;34.47;21108.66;5069749;28;20227;-59
2022/07/06 09:38:11;;;;;;;2.28;1.10;;;21.50;99.90;;;-141.84;34.51;21088.34;5070049;28;20203;-59
2022/07/06 09:40:43;;;;;;;1.65;1.20;;;21.50;99.90;;;-141.84;35.02;21017.19;5069048;28;20235;-59
2022/07/06 09:43:15;;;;;;;2.38;1.23;;;21.30;99.90;;;-141.84;34.99;21031.41;5069419;28;20224;-61
2022/07/06 09:45:45;;;;;;;2.25;1.10;;;21.30;99.90;;;-141.84;35.33;21051.75;5069313;28;20228;-59
2022/07/06 09:48:18;;;;;;;2.17;1.20;;;21.30;99.90;;;-141.84;34.52;21122.91;5069273;28;20751;-59
2022/07/06 09:50:50;;;;;;;2.53;1.20;;;21.50;99.90;;;-141.84;34.42;21096.47;5069662;28;20217;-61
2022/07/06 09:53:20;;;;;;;2.60;1.50;;;21.40;99.90;;;-141.84;33.97;21116.78;5069421;28;20188;-58
2022/07/06 09:55:53;;;;;;;4.45;1.33;;;21.50;99.90;;;-141.84;34.51;21155.44;5069983;28;20223;-59
2022/07/06 09:58:23;;;;;;;2.10;1.30;;;21.60;99.90;;;-141.84;34.33;21169.66;5069212;28;20227;-59
2022/07/06 10:01:11;;;;;;;1.45;1.17;;;21.70;99.90;;;-141.84;34.39;21169.66;5069198;28;20227;-60
2022/07/06 10:03:41;;;;;;;2.60;1.40;;;21.90;99.90;;;-141.84;34.32;21185.91;5069209;28;20231;-60
2022/07/06 10:06:09;;;;;;;2.15;1.38;;;21.80;99.90;;;-141.84;34.73;21118.84;5069528;28;20216;-59
2022/07/06 10:08:39;;;;;;;1.25;1.10;;;21.70;99.90;;;-141.84;34.74;21131.03;5069086;28;20301;-59
2022/07/06 10:11:14;;;;;;;1.77;1.25;;;21.50;99.90;;;-141.84;34.95;21114.75;5069761;28;20583;-61
2022/07/06 10:13:46;;;;;;;4.20;1.33;;;21.60;99.90;;;-141.84;34.61;21108.66;5069193;28;20711;-58
2022/07/06 10:16:16;;;;;;;2.05;1.42;;;21.50;99.90;;;-141.84;34.88;21143.22;5069451;28;20723;-60